Wangaratta Aerodrome, Australia
Current Conditions -  °F | °C
As of 6:00 AM on Friday 28 Nov 2014 (Local Time) from YMAY Reporting Station
Clear Clear  
Wind Chill: 55°   Ceiling: Unl
Heat Index: 55°   Visibility: 6mi
Dew Point: 48°   Wind: 1mph
Humidity: 77%   Direction: 100°E
Pressure: 30.12"   Gusts: NA
Location:  36.42°S, 146.3°E
Report Text: YMAY 271900Z AUTO 10001KT 9999 // NCD 13/09 Q1020
Loading
Personal Weather Stations






























Interactive Weather Map New forecast layout! Learn more

10-Day Weather Forecast

Advertisements
Track Severe Weather on mobile